createdAt,value
2018-07-10T00:03:19.972Z,95038.98
2018-07-10T00:09:19.202Z,95035.43
2018-07-10T00:12:23.520Z,95027.72
2018-07-10T00:15:28.222Z,95033.08
2018-07-10T00:18:32.715Z,95031.17
2018-07-10T00:21:37.284Z,95031.64
2018-07-10T00:24:41.643Z,95034.25
2018-07-10T00:27:45.999Z,95025.44
2018-07-10T00:30:50.488Z,95024.37
2018-07-10T00:33:54.805Z,95022.86
2018-07-10T00:36:59.206Z,95023.08
2018-07-10T00:40:03.540Z,95025.31
2018-07-10T00:43:10.757Z,95018.41
2018-07-10T00:46:15.101Z,95010.63
2018-07-10T00:49:20.438Z,95004.13
2018-07-10T00:52:34.418Z,95002.69
2018-07-10T00:55:38.765Z,95006.25
2018-07-10T00:58:43.063Z,95002.80
2018-07-10T01:01:47.327Z,95005.51
2018-07-10T01:04:51.672Z,94998.67
2018-07-10T01:07:56.889Z,95002.62
2018-07-10T01:11:07.781Z,95000.78
2018-07-10T01:14:13.356Z,94998.00
2018-07-10T01:17:17.913Z,95005.20
2018-07-10T01:20:22.228Z,95005.55
2018-07-10T01:23:29.785Z,95000.83
2018-07-10T01:26:37.718Z,94998.51
2018-07-10T01:29:47.316Z,94989.80
2018-07-10T01:32:51.990Z,94988.82
2018-07-10T01:35:56.669Z,94988.19
2018-07-10T01:39:00.977Z,94980.47
2018-07-10T01:42:05.581Z,94978.61
2018-07-10T01:45:09.866Z,94976.88
2018-07-10T01:48:14.235Z,94981.77
2018-07-10T01:51:19.413Z,94979.69
2018-07-10T01:54:23.757Z,94974.20
2018-07-10T01:57:28.452Z,94971.91
2018-07-10T02:00:55.186Z,94978.61
2018-07-10T02:04:01.764Z,94973.53
2018-07-10T02:07:06.588Z,94971.88
2018-07-10T02:10:11.045Z,94974.77
2018-07-10T02:13:15.335Z,94971.91
2018-07-10T02:16:19.638Z,94977.02
2018-07-10T02:19:24.789Z,94976.88
2018-07-10T02:22:29.193Z,94971.88
2018-07-10T02:25:33.548Z,94969.09
2018-07-10T02:28:37.852Z,94966.06
2018-07-10T02:31:42.124Z,94966.48
2018-07-10T02:34:46.534Z,94970.08
2018-07-10T02:37:50.821Z,94966.70
2018-07-10T02:40:55.560Z,94962.58
2018-07-10T02:44:02.774Z,94961.17
2018-07-10T02:47:08.477Z,94959.62
2018-07-10T02:50:12.973Z,94955.89
2018-07-10T02:53:17.261Z,94955.40
2018-07-10T02:56:22.556Z,94952.69
2018-07-10T02:59:36.794Z,94954.17
2018-07-10T03:02:41.063Z,94949.48
2018-07-10T03:05:45.628Z,94943.98
2018-07-10T03:08:49.940Z,94947.19
2018-07-10T03:11:54.212Z,94951.88
2018-07-10T03:15:04.711Z,94949.69
2018-07-10T03:18:09.056Z,94950.16
2018-07-10T03:21:13.482Z,94958.74
2018-07-10T03:24:17.927Z,94955.67
2018-07-10T03:27:22.450Z,94951.48
2018-07-10T03:30:26.729Z,94957.20
2018-07-10T03:33:31.336Z,94953.39
2018-07-10T03:36:35.637Z,94947.08
2018-07-10T03:39:41.856Z,94938.73
2018-07-10T03:42:46.737Z,94933.98
2018-07-10T03:45:52.146Z,94930.60
2018-07-10T03:48:57.032Z,94929.47
2018-07-10T03:52:03.808Z,94922.25
2018-07-10T03:55:12.805Z,94924.99
2018-07-10T03:58:17.343Z,94923.90
2018-07-10T04:01:21.726Z,94935.86
2018-07-10T04:04:26.701Z,94934.34
2018-07-10T04:07:31.726Z,94938.22
2018-07-10T04:10:38.341Z,94938.67
2018-07-10T04:13:42.766Z,94933.31
2018-07-10T04:16:47.817Z,94932.84
2018-07-10T04:19:52.118Z,94929.23
2018-07-10T04:22:56.636Z,94923.13
2018-07-10T04:26:02.504Z,94925.81
2018-07-10T04:29:14.920Z,94940.19
2018-07-10T04:32:20.517Z,94946.86
2018-07-10T04:35:28.050Z,94948.11
2018-07-10T04:38:32.922Z,94947.87
2018-07-10T04:41:41.095Z,94936.62
2018-07-10T04:44:45.491Z,94931.46
2018-07-10T04:47:57.633Z,94935.00
2018-07-10T04:51:47.341Z,94943.90
2018-07-10T04:55:11.990Z,94946.06
2018-07-10T04:58:22.367Z,94940.98
2018-07-10T05:01:34.772Z,94938.03
2018-07-10T05:04:39.132Z,94944.92
2018-07-10T05:07:44.882Z,94949.37
2018-07-10T05:10:51.520Z,94938.86
2018-07-10T05:13:55.849Z,94937.78
2018-07-10T05:17:00.330Z,94931.52
2018-07-10T05:20:05.154Z,94930.20
2018-07-10T05:23:12.536Z,94929.72
2018-07-10T05:26:19.949Z,94930.45
2018-07-10T05:29:24.320Z,94938.13
2018-07-10T05:32:30.223Z,94940.28
2018-07-10T05:35:34.886Z,94928.32
2018-07-10T05:38:40.367Z,94929.48
2018-07-10T05:41:46.845Z,94924.25
2018-07-10T05:44:51.257Z,94925.56
2018-07-10T05:48:02.320Z,94928.94
2018-07-10T05:51:06.739Z,94916.61
2018-07-10T05:54:11.091Z,94909.23
2018-07-10T05:57:16.145Z,94907.81
2018-07-10T06:00:20.430Z,94910.23
2018-07-10T06:03:24.740Z,94903.85
2018-07-10T06:06:29.078Z,94896.77
2018-07-10T06:09:33.368Z,94902.55
2018-07-10T06:12:37.730Z,94910.79
2018-07-10T06:15:42.577Z,94914.31
2018-07-10T06:18:46.889Z,94915.49
2018-07-10T06:21:52.652Z,94915.52
2018-07-10T06:25:03.226Z,94923.48
2018-07-10T06:28:12.071Z,94938.70
2018-07-10T06:31:21.282Z,94952.19
2018-07-10T06:34:34.754Z,94956.56
2018-07-10T06:37:42.962Z,94955.28
2018-07-10T06:40:50.917Z,94952.76
2018-07-10T06:43:59.389Z,94953.53
2018-07-10T06:47:06.068Z,94958.90
2018-07-10T06:50:10.338Z,94943.16
2018-07-10T06:53:15.128Z,94943.01
2018-07-10T06:56:34.381Z,94938.27
2018-07-10T06:59:38.889Z,94936.62
2018-07-10T07:02:43.379Z,94920.22
2018-07-10T07:05:48.352Z,94930.67
2018-07-10T07:08:53.232Z,94929.02
2018-07-10T07:11:58.419Z,94936.30
2018-07-10T07:15:05.874Z,94937.80
2018-07-10T07:18:10.917Z,94944.86
2018-07-10T07:21:15.393Z,94943.52
2018-07-10T07:24:20.300Z,94950.45
2018-07-10T07:27:24.880Z,94943.97
2018-07-10T07:30:29.584Z,94934.89
2018-07-10T07:33:35.315Z,94946.33
2018-07-10T07:36:40.085Z,94952.50
2018-07-10T07:39:45.909Z,94951.36
2018-07-10T07:42:50.293Z,94962.23
2018-07-10T07:45:56.629Z,94980.10
2018-07-10T07:49:00.961Z,94977.41
2018-07-10T07:52:05.461Z,94958.38
2018-07-10T07:55:09.808Z,94969.27
2018-07-10T07:58:14.301Z,94959.88
2018-07-10T08:01:18.751Z,94963.72
2018-07-10T08:04:23.110Z,94947.23
2018-07-10T08:07:28.076Z,94955.84
2018-07-10T08:10:32.960Z,94952.33
2018-07-10T08:13:37.485Z,94943.44
2018-07-10T08:16:41.781Z,94944.84
2018-07-10T08:19:47.198Z,94948.70
2018-07-10T08:22:51.927Z,94952.19
2018-07-10T08:25:56.905Z,94955.72
2018-07-10T08:29:02.408Z,94951.67
2018-07-10T08:32:06.785Z,94945.22
2018-07-10T08:35:11.938Z,94947.05
2018-07-10T08:38:42.204Z,94957.59
2018-07-10T08:41:47.861Z,94956.48
2018-07-10T08:44:52.699Z,94956.89
2018-07-10T08:47:58.410Z,94954.16
2018-07-10T08:51:03.401Z,94947.97
2018-07-10T08:54:09.081Z,94957.63
2018-07-10T08:57:13.489Z,94948.66
2018-07-10T09:00:19.145Z,94950.37
2018-07-10T09:03:24.572Z,94954.39
2018-07-10T09:06:29.189Z,94951.12
2018-07-10T09:09:33.488Z,94953.44
2018-07-10T09:12:37.781Z,94954.05
2018-07-10T09:15:42.045Z,94945.33
2018-07-10T09:18:47.185Z,94948.82
2018-07-10T09:22:10.067Z,94948.75
2018-07-10T09:25:14.349Z,94951.19
2018-07-10T09:28:18.626Z,94954.05
2018-07-10T09:31:22.996Z,94939.06
2018-07-10T09:34:27.301Z,94944.17
2018-07-10T09:37:36.757Z,94940.29
2018-07-10T09:40:41.097Z,94939.64
2018-07-10T09:43:46.688Z,94931.39
2018-07-10T09:46:51.222Z,94928.31
2018-07-10T09:49:55.652Z,94931.44
2018-07-10T09:53:01.653Z,94929.56
2018-07-10T09:56:05.957Z,94922.20
2018-07-10T09:59:11.008Z,94917.55
2018-07-10T10:02:22.123Z,94912.56
2018-07-10T10:05:28.226Z,94915.05
2018-07-10T10:08:33.309Z,94911.11
2018-07-10T10:11:37.981Z,94910.30
2018-07-10T10:14:42.493Z,94911.49
2018-07-10T10:17:48.002Z,94921.78
2018-07-10T10:20:52.697Z,94918.08
2018-07-10T10:23:58.768Z,94925.14
2018-07-10T10:27:04.264Z,94924.95
2018-07-10T10:30:08.681Z,94935.52
2018-07-10T10:33:13.477Z,94930.55
2018-07-10T10:36:18.153Z,94925.34
2018-07-10T10:39:22.516Z,94920.30
2018-07-10T10:42:28.819Z,94913.48
2018-07-10T10:45:37.221Z,94910.12
2018-07-10T10:48:41.576Z,94916.16
2018-07-10T10:51:45.924Z,94910.11
2018-07-10T10:54:51.124Z,94912.42
2018-07-10T10:57:55.968Z,94904.44
2018-07-10T11:01:00.299Z,94897.55
2018-07-10T11:04:05.704Z,94894.34
2018-07-10T11:07:10.027Z,94886.26
2018-07-10T11:10:14.316Z,94887.36
2018-07-10T11:13:19.421Z,94886.86
2018-07-10T11:16:24.594Z,94876.84
2018-07-10T11:19:39.528Z,94877.75
2018-07-10T11:22:56.572Z,94880.24
2018-07-10T11:26:08.856Z,94877.17
2018-07-10T11:29:13.848Z,94882.42
2018-07-10T11:32:18.173Z,94884.94
2018-07-10T11:35:22.573Z,94881.01
2018-07-10T11:38:26.877Z,94876.23
2018-07-10T11:41:33.038Z,94881.17
2018-07-10T11:44:37.374Z,94881.48
2018-07-10T11:47:41.830Z,94878.49
2018-07-10T11:50:47.747Z,94881.27
2018-07-10T11:53:52.033Z,94874.83
2018-07-10T11:56:56.529Z,94872.63
2018-07-10T12:00:01.014Z,94875.73
2018-07-10T12:03:07.049Z,94872.29
2018-07-10T12:06:12.609Z,94866.09
2018-07-10T12:09:18.064Z,94864.16
2018-07-10T12:12:22.661Z,94855.80
2018-07-10T12:15:27.565Z,94865.03
2018-07-10T12:18:32.658Z,94859.38
2018-07-10T12:21:37.133Z,94863.09
2018-07-10T12:24:42.193Z,94864.31
2018-07-10T12:27:46.505Z,94854.26
2018-07-10T12:30:50.865Z,94857.16
2018-07-10T12:33:55.410Z,94850.29
2018-07-10T12:36:59.934Z,94844.70
2018-07-10T12:40:04.778Z,94851.47
2018-07-10T12:43:09.930Z,94843.48
2018-07-10T12:46:17.021Z,94833.32
2018-07-10T12:49:21.688Z,94835.44
2018-07-10T12:52:26.666Z,94830.42
2018-07-10T12:55:31.199Z,94839.39
2018-07-10T12:58:39.801Z,94833.13
2018-07-10T13:01:44.443Z,94829.55
2018-07-10T13:04:48.787Z,94836.83
2018-07-10T13:07:53.197Z,94837.02
2018-07-10T13:10:57.521Z,94839.69
2018-07-10T13:14:01.937Z,94838.29
2018-07-10T13:17:07.281Z,94831.66
2018-07-10T13:20:11.822Z,94828.86
2018-07-10T13:23:16.144Z,94825.77
2018-07-10T13:26:20.653Z,94831.03
2018-07-10T13:29:25.145Z,94820.42
2018-07-10T13:32:29.521Z,94820.06
2018-07-10T13:35:36.103Z,94823.35
2018-07-10T13:38:41.656Z,94806.39
2018-07-10T13:41:45.977Z,94801.38
2018-07-10T13:44:50.381Z,94802.58
2018-07-10T13:48:03.822Z,94803.98
2018-07-10T13:51:08.986Z,94799.98
2018-07-10T13:54:13.662Z,94792.83
2018-07-10T13:57:18.120Z,94783.23
2018-07-10T14:00:23.465Z,94779.37
2018-07-10T14:03:28.506Z,94772.59
2018-07-10T14:06:32.896Z,94776.78
2018-07-10T14:09:37.324Z,94781.94
2018-07-10T14:12:42.093Z,94772.23
2018-07-10T14:15:47.601Z,94773.18
2018-07-10T14:18:55.508Z,94767.45
2018-07-10T14:22:04.512Z,94766.38
2018-07-10T14:25:14.466Z,94765.10
2018-07-10T14:28:19.276Z,94762.49
2018-07-10T14:31:23.362Z,94768.34
2018-07-10T14:34:27.823Z,94764.34
2018-07-10T14:37:33.454Z,94757.92
2018-07-10T14:40:48.491Z,94757.05
2018-07-10T14:43:52.949Z,94751.42
2018-07-10T14:46:58.549Z,94751.83
2018-07-10T14:50:03.775Z,94751.66
2018-07-10T14:53:08.329Z,94750.77
2018-07-10T14:56:13.401Z,94763.62
2018-07-10T14:59:17.969Z,94762.23
2018-07-10T15:02:23.698Z,94755.28
2018-07-10T15:05:28.346Z,94757.70
2018-07-10T15:08:32.765Z,94792.23
2018-07-10T15:11:37.315Z,94780.52
2018-07-10T15:14:42.001Z,94803.87
2018-07-10T15:17:51.533Z,94810.34
2018-07-10T15:20:56.121Z,94833.04
2018-07-10T15:24:02.484Z,94841.48
2018-07-10T15:27:07.045Z,94842.66
2018-07-10T15:30:11.413Z,94851.70
2018-07-10T15:33:16.328Z,94856.59
2018-07-10T15:36:20.670Z,94869.99
2018-07-10T15:39:25.551Z,94857.11
2018-07-10T15:42:30.537Z,94862.39
2018-07-10T15:45:35.165Z,94863.78
2018-07-10T15:48:39.476Z,94881.27
2018-07-10T15:51:44.260Z,94881.12
2018-07-10T15:54:49.452Z,94877.29
2018-07-10T15:57:53.823Z,94859.79
2018-07-10T16:00:58.287Z,94857.09
2018-07-10T16:04:03.011Z,94847.15
2018-07-10T16:07:07.504Z,94862.40
2018-07-10T16:10:12.002Z,94870.55
2018-07-10T16:13:17.927Z,94864.13
2018-07-10T16:16:22.783Z,94871.30
2018-07-10T16:19:41.365Z,94869.97
2018-07-10T16:22:46.253Z,94873.55
2018-07-10T16:25:51.180Z,94877.23
2018-07-10T16:28:56.333Z,94879.42
2018-07-10T16:32:05.301Z,94878.44
2018-07-10T16:35:10.996Z,94885.05
2018-07-10T16:38:16.064Z,94888.59
2018-07-10T16:41:27.078Z,94886.15
2018-07-10T16:44:33.071Z,94878.53
2018-07-10T16:48:15.625Z,94885.78
2018-07-10T16:51:47.785Z,94882.05
2018-07-10T16:54:53.832Z,94881.89
2018-07-10T16:57:59.875Z,94890.55
2018-07-10T17:01:06.880Z,94884.63
2018-07-10T17:04:12.400Z,94894.59
2018-07-10T17:07:18.456Z,94904.77
2018-07-10T17:10:24.202Z,94919.35
2018-07-10T17:13:28.885Z,94942.99
2018-07-10T17:16:34.917Z,94951.44
2018-07-10T17:19:40.562Z,94933.74
2018-07-10T17:22:45.564Z,94927.16
2018-07-10T17:25:51.305Z,94924.98
2018-07-10T17:28:57.688Z,94926.74
2018-07-10T17:32:02.242Z,94928.52
2018-07-10T17:35:06.991Z,94927.70
2018-07-10T17:38:12.695Z,94933.51
2018-07-10T17:41:17.452Z,94936.17
2018-07-10T17:44:22.810Z,94941.24
2018-07-10T17:47:27.591Z,94942.93
2018-07-10T17:50:31.652Z,94947.31
2018-07-10T17:53:36.749Z,94954.17
2018-07-10T17:56:41.114Z,94953.82
2018-07-10T17:59:46.771Z,94944.78
2018-07-10T18:02:51.113Z,94951.58
2018-07-10T18:05:55.605Z,94957.98
2018-07-10T18:09:00.643Z,94959.56
2018-07-10T18:12:05.105Z,94963.64
2018-07-10T18:15:09.739Z,94948.25
2018-07-10T18:18:15.583Z,94947.84
2018-07-10T18:21:20.016Z,94949.52
2018-07-10T18:24:26.228Z,94946.08
2018-07-10T18:27:30.902Z,94942.94
2018-07-10T18:30:35.213Z,94939.77
2018-07-10T18:33:39.655Z,94939.98
2018-07-10T18:36:44.056Z,94942.05
2018-07-10T18:39:48.793Z,94953.14
2018-07-10T18:42:55.945Z,94955.69
2018-07-10T18:46:00.595Z,94956.44
2018-07-10T18:49:05.418Z,94959.20
2018-07-10T18:52:09.792Z,94958.36
2018-07-10T18:55:15.721Z,94964.85
2018-07-10T18:58:49.158Z,94961.53
2018-07-10T19:02:07.251Z,94955.62
2018-07-10T19:05:11.781Z,94963.58
2018-07-10T19:08:16.892Z,94971.25
2018-07-10T19:11:27.343Z,94971.06
2018-07-10T19:14:31.750Z,94976.84
2018-07-10T19:17:36.693Z,94980.43
2018-07-10T19:20:52.280Z,94985.66
2018-07-10T19:24:00.898Z,94985.79
2018-07-10T19:27:06.154Z,94990.46
2018-07-10T19:30:11.404Z,94986.30
2018-07-10T19:33:15.715Z,94982.05
2018-07-10T19:36:20.564Z,94979.86
2018-07-10T19:39:25.545Z,94983.83
2018-07-10T19:42:32.719Z,94995.22
2018-07-10T19:45:37.810Z,94989.67
2018-07-10T19:48:45.866Z,94991.77
2018-07-10T19:51:50.592Z,94995.02
2018-07-10T19:54:55.888Z,94998.47
2018-07-10T19:58:15.618Z,94996.23
2018-07-10T20:01:56.328Z,94990.87
2018-07-10T20:05:06.224Z,94987.17
2018-07-10T20:08:16.487Z,94987.07
2018-07-10T20:11:32.490Z,94981.97
2018-07-10T20:14:46.088Z,94977.20
2018-07-10T20:18:10.713Z,94974.08
2018-07-10T20:21:20.010Z,94985.55
2018-07-10T20:24:24.897Z,94983.20
2018-07-10T20:27:54.717Z,94989.45
2018-07-10T20:31:25.331Z,94994.10
2018-07-10T20:34:41.505Z,94991.45
2018-07-10T20:37:49.334Z,94983.41
2018-07-10T20:40:55.366Z,94984.13
2018-07-10T20:44:01.309Z,94979.23
2018-07-10T20:47:06.322Z,94983.41
2018-07-10T20:50:10.461Z,94981.15
2018-07-10T20:54:29.556Z,94977.55
2018-07-10T20:57:42.638Z,94967.81
2018-07-10T21:01:01.732Z,94962.18
2018-07-10T21:04:21.220Z,94959.35
2018-07-10T21:07:30.206Z,94961.17
2018-07-10T21:10:42.794Z,94959.95
2018-07-10T21:13:59.901Z,94961.36
2018-07-10T21:17:11.030Z,94961.00
2018-07-10T21:20:28.908Z,94957.09
2018-07-10T21:23:54.375Z,94952.42
2018-07-10T21:27:05.380Z,94953.88
2018-07-10T21:30:19.967Z,94952.87
2018-07-10T21:33:39.157Z,94959.21
2018-07-10T21:39:16.034Z,94953.17
2018-07-10T21:42:35.675Z,94949.83
2018-07-10T21:46:13.685Z,94954.59
2018-07-10T21:49:28.738Z,94955.84
2018-07-10T21:52:33.653Z,94948.20
2018-07-10T21:55:37.973Z,94941.29
2018-07-10T21:58:42.266Z,94939.48
2018-07-10T22:01:58.445Z,94944.00
2018-07-10T22:05:03.475Z,94942.16
2018-07-10T22:08:07.853Z,94959.72
2018-07-10T22:11:12.317Z,94962.30
2018-07-10T22:14:18.321Z,94956.28
2018-07-10T22:17:25.057Z,94949.44
2018-07-10T22:20:29.398Z,94945.52
2018-07-10T22:23:33.936Z,94946.16
2018-07-10T22:26:39.373Z,94936.92
2018-07-10T22:29:48.985Z,94935.38
2018-07-10T22:32:54.409Z,94912.53
2018-07-10T22:35:59.769Z,94911.08
2018-07-10T22:39:05.067Z,94919.02
2018-07-10T22:42:09.411Z,94921.70
2018-07-10T22:45:14.225Z,94926.78
2018-07-10T22:48:18.577Z,94935.08
2018-07-10T22:51:22.869Z,94937.15
2018-07-10T22:54:27.553Z,94927.89
2018-07-10T22:57:31.987Z,94926.80
2018-07-10T23:00:38.179Z,94924.33
2018-07-10T23:03:42.565Z,94934.16
2018-07-10T23:06:47.311Z,94929.97
2018-07-10T23:09:52.479Z,94923.09
2018-07-10T23:12:56.937Z,94918.31
2018-07-10T23:16:01.449Z,94907.39
2018-07-10T23:19:07.298Z,94903.11
2018-07-10T23:22:11.620Z,94907.69
2018-07-10T23:25:16.961Z,94901.10
2018-07-10T23:28:22.181Z,94912.38
2018-07-10T23:31:29.555Z,94906.45
2018-07-10T23:34:34.006Z,94905.33
2018-07-10T23:37:40.148Z,94897.30
2018-07-10T23:40:44.698Z,94902.05
2018-07-10T23:43:49.701Z,94905.16
2018-07-10T23:47:00.222Z,94895.16
2018-07-10T23:50:19.539Z,94890.83
2018-07-10T23:53:51.149Z,94892.17
2018-07-10T23:56:55.480Z,94887.77
2018-07-10T23:59:59.809Z,94886.22
